Time;durP1;ratioP1;P1;durP2;ratioP2;P2;SDS_P1;SDS_P2;PMS_P1;PMS_P2;Temp;Humidity;BMP_temperature;BMP_pressure;BME280_temperature;BME280_humidity;BME280_pressure;Samples;Min_cycle;Max_cycle;Signal;HPM_P1;HPM_P2
2021/04/19 00:02:23;;;;;;;11.20;5.75;;;13.10;99.90;;;;;;1809086;78;21083;-70
2021/04/19 00:04:50;;;;;;;9.58;5.25;;;13.00;99.90;;;;;;1808985;77;21161;-70
2021/04/19 00:07:18;;;;;;;9.95;5.12;;;12.90;99.90;;;;;;1845292;77;21081;-70
2021/04/19 00:09:47;;;;;;;9.55;5.28;;;12.80;99.90;;;;;;1814213;78;21095;-72
2021/04/19 00:12:14;;;;;;;12.63;5.40;;;12.70;99.90;;;;;;1840046;77;21119;-70
2021/04/19 00:14:42;;;;;;;9.53;5.30;;;12.70;99.90;;;;;;1816426;78;21142;-72
2021/04/19 00:17:09;;;;;;;11.85;5.05;;;12.60;99.90;;;;;;1837507;77;22126;-72
2021/04/19 00:19:37;;;;;;;11.38;6.15;;;12.60;99.90;;;;;;1837126;77;21129;-72
2021/04/19 00:22:04;;;;;;;12.03;5.40;;;12.50;99.90;;;;;;1817296;78;21588;-72
2021/04/19 00:24:32;;;;;;;8.48;5.28;;;12.50;99.90;;;;;;1837624;77;21141;-72
2021/04/19 00:26:59;;;;;;;11.20;5.70;;;12.40;99.90;;;;;;1811025;78;21028;-70
2021/04/19 00:29:27;;;;;;;10.80;5.97;;;12.40;99.90;;;;;;1841557;77;21050;-72
2021/04/19 00:31:54;;;;;;;10.32;5.37;;;12.30;99.90;;;;;;1808406;78;21119;-73
2021/04/19 00:34:22;;;;;;;12.88;5.60;;;12.30;99.90;;;;;;1842437;76;21688;-73
2021/04/19 00:36:49;;;;;;;12.98;6.12;;;12.30;99.90;;;;;;1830388;78;21135;-72
2021/04/19 00:39:17;;;;;;;12.85;6.30;;;12.30;99.90;;;;;;1852476;76;21110;-73
2021/04/19 00:41:45;;;;;;;16.62;6.55;;;12.30;99.90;;;;;;1830561;78;21110;-73
2021/04/19 00:44:13;;;;;;;17.23;5.85;;;12.30;99.90;;;;;;1852132;76;21115;-73
2021/04/19 00:46:41;;;;;;;13.53;6.58;;;12.30;99.90;;;;;;1829855;78;21197;-73
2021/04/19 00:49:08;;;;;;;13.45;6.58;;;12.20;99.90;;;;;;1859352;76;21103;-72
2021/04/19 00:51:36;;;;;;;11.85;6.83;;;12.20;99.90;;;;;;1829957;77;21216;-72
2021/04/19 00:54:04;;;;;;;15.28;6.92;;;12.20;99.90;;;;;;1819939;78;21105;-73
2021/04/19 00:56:32;;;;;;;15.05;6.55;;;12.20;99.90;;;;;;1832527;78;21717;-72
2021/04/19 00:58:59;;;;;;;10.90;6.30;;;12.10;99.90;;;;;;1828147;78;21102;-73
2021/04/19 01:01:31;;;;;;;12.33;6.72;;;12.10;99.90;;;;;;1855319;76;21102;-72
2021/04/19 01:03:56;;;;;;;10.72;6.67;;;12.10;99.90;;;;;;1830490;78;21237;-72
2021/04/19 01:06:24;;;;;;;13.22;7.37;;;12.00;99.90;;;;;;1853566;76;21094;-72
2021/04/19 01:08:51;;;;;;;13.43;7.47;;;11.90;99.90;;;;;;1826752;78;21123;-72
2021/04/19 01:11:19;;;;;;;16.10;7.87;;;11.90;99.90;;;;;;1852266;76;21158;-72
2021/04/19 01:13:46;;;;;;;12.40;7.60;;;11.90;99.90;;;;;;1825574;78;21194;-72
2021/04/19 01:16:14;;;;;;;15.28;7.10;;;11.90;99.90;;;;;;1821637;78;21103;-71
2021/04/19 01:18:41;;;;;;;16.67;7.55;;;11.90;99.90;;;;;;1855441;76;21143;-71
2021/04/19 01:21:09;;;;;;;14.35;7.47;;;11.80;99.90;;;;;;1830469;78;21103;-71
2021/04/19 01:23:39;;;;;;;11.22;7.22;;;11.90;99.90;;;;;;1846791;76;21162;-71
2021/04/19 01:26:07;;;;;;;15.03;8.35;;;11.90;99.90;;;;;;1822946;78;21389;-71
2021/04/19 01:28:35;;;;;;;17.35;9.05;;;12.00;99.90;;;;;;1816777;77;21607;-71
2021/04/19 01:31:02;;;;;;;18.75;9.40;;;12.00;99.90;;;;;;1812779;78;21381;-71
2021/04/19 01:33:32;;;;;;;20.45;10.43;;;11.90;99.90;;;;;;1853841;76;21614;-71
2021/04/19 01:35:59;;;;;;;24.45;13.40;;;11.90;99.90;;;;;;1824549;78;21146;-71
2021/04/19 01:38:27;;;;;;;24.40;13.88;;;11.90;99.90;;;;;;1844538;77;21174;-71
2021/04/19 01:40:55;;;;;;;24.85;15.78;;;12.00;99.90;;;;;;1839466;77;21669;-71
2021/04/19 01:43:24;;;;;;;25.10;15.70;;;12.00;99.90;;;;;;1846797;76;21181;-71
2021/04/19 01:45:52;;;;;;;25.90;16.00;;;12.10;99.90;;;;;;1842214;77;21747;-71
2021/04/19 01:48:23;;;;;;;26.02;16.55;;;12.20;99.90;;;;;;1841763;77;21100;-71
2021/04/19 01:50:53;;;;;;;23.65;16.07;;;12.20;99.90;;;;;;1842237;76;21612;-71
2021/04/19 01:53:21;;;;;;;25.40;16.42;;;12.20;99.90;;;;;;1843492;77;21033;-71
2021/04/19 01:55:49;;;;;;;26.33;16.73;;;12.20;99.90;;;;;;1840990;77;21061;-72
2021/04/19 01:58:19;;;;;;;24.35;17.75;;;12.10;99.90;;;;;;1839159;77;21199;-71
2021/04/19 02:00:50;;;;;;;25.37;17.23;;;12.10;99.90;;;;;;1842927;77;21206;-71
2021/04/19 02:03:37;;;;;;;28.65;18.52;;;12.10;99.90;;;;;;1840176;77;21132;-71
2021/04/19 02:06:17;;;;;;;26.35;17.52;;;12.20;99.90;;;;;;1837280;77;21092;-71
2021/04/19 02:09:05;;;;;;;25.20;17.67;;;12.20;99.90;;;;;;1824730;77;21112;-71
2021/04/19 02:11:44;;;;;;;28.77;19.62;;;12.00;99.90;;;;;;1837914;77;21226;-70
2021/04/19 02:14:36;;;;;;;26.75;18.67;;;12.10;99.90;;;;;;1790786;78;21164;-70
2021/04/19 02:17:23;;;;;;;29.95;18.77;;;12.00;99.90;;;;;;1841862;77;21174;-72
2021/04/19 02:20:11;;;;;;;27.20;19.92;;;11.90;99.90;;;;;;1840191;76;21140;-71
2021/04/19 02:22:42;;;;;;;30.92;18.82;;;11.80;99.90;;;;;;1842375;77;21151;-72
2021/04/19 02:25:21;;;;;;;31.95;19.15;;;11.80;99.90;;;;;;1834593;77;21609;-71
2021/04/19 02:27:52;;;;;;;24.67;18.10;;;11.90;99.90;;;;;;1842923;77;21491;-71
2021/04/19 02:30:21;;;;;;;28.80;18.30;;;11.90;99.90;;;;;;1839777;77;21050;-72
2021/04/19 02:32:53;;;;;;;29.70;18.60;;;11.90;99.90;;;;;;1843856;77;21105;-71
2021/04/19 02:35:24;;;;;;;26.33;18.67;;;11.90;99.90;;;;;;1839218;75;21201;-71
2021/04/19 02:37:53;;;;;;;28.42;17.82;;;12.00;99.90;;;;;;1844437;77;21622;-71
2021/04/19 02:40:23;;;;;;;26.37;18.70;;;12.00;99.90;;;;;;1837062;76;21182;-71
2021/04/19 02:42:52;;;;;;;25.12;17.75;;;12.10;99.90;;;;;;1849650;76;21589;-71
2021/04/19 02:45:22;;;;;;;23.95;17.12;;;12.10;99.90;;;;;;1841979;76;21163;-71
2021/04/19 02:47:51;;;;;;;28.85;17.60;;;12.10;99.90;;;;;;1839843;77;21167;-71
2021/04/19 02:50:21;;;;;;;28.50;18.17;;;12.10;99.90;;;;;;1839409;77;21092;-71
2021/04/19 02:52:50;;;;;;;31.37;17.87;;;12.00;99.90;;;;;;1837214;76;22228;-71
2021/04/19 02:55:26;;;;;;;27.02;18.32;;;12.00;99.90;;;;;;1834163;76;21740;-73
2021/04/19 02:57:56;;;;;;;25.25;17.85;;;12.10;99.90;;;;;;1839303;77;21070;-72
2021/04/19 03:00:27;;;;;;;28.20;18.80;;;12.00;99.90;;;;;;1837228;77;21182;-71
2021/04/19 03:02:57;;;;;;;28.60;18.45;;;12.00;99.90;;;;;;1841241;77;21097;-72
2021/04/19 03:05:25;;;;;;;26.00;18.67;;;12.10;99.90;;;;;;1837818;77;21074;-72
2021/04/19 03:07:58;;;;;;;32.28;19.48;;;12.10;99.90;;;;;;1840377;77;21167;-72
2021/04/19 03:10:28;;;;;;;26.73;18.15;;;12.10;99.90;;;;;;1839990;77;21586;-73
2021/04/19 03:12:59;;;;;;;28.62;18.87;;;12.10;99.90;;;;;;1839966;77;21210;-71
2021/04/19 03:15:29;;;;;;;29.40;19.27;;;12.20;99.90;;;;;;1834852;76;21127;-71
2021/04/19 03:18:00;;;;;;;29.90;20.25;;;12.20;99.90;;;;;;1841477;77;21577;-72
2021/04/19 03:20:47;;;;;;;29.20;18.57;;;12.20;99.90;;;;;;1838961;77;21545;-71
2021/04/19 03:23:15;;;;;;;25.08;18.00;;;12.20;99.90;;;;;;1838582;77;21661;-72
2021/04/19 03:25:45;;;;;;;27.25;18.62;;;12.00;99.90;;;;;;1835453;77;21081;-71
2021/04/19 03:28:15;;;;;;;24.92;18.62;;;12.10;99.90;;;;;;1843817;76;21100;-71
2021/04/19 03:30:42;;;;;;;27.60;18.92;;;12.10;99.90;;;;;;1842686;76;21060;-71
2021/04/19 03:33:10;;;;;;;27.58;19.32;;;12.10;99.90;;;;;;1839964;77;21534;-71
2021/04/19 03:36:17;;;;;;;29.60;19.07;;;12.10;99.90;;;;;;1837486;77;21119;-72
2021/04/19 03:38:47;;;;;;;28.17;18.98;;;12.10;99.90;;;;;;1839510;77;21232;-71
2021/04/19 03:41:17;;;;;;;25.02;18.98;;;12.00;99.90;;;;;;1842575;76;21104;-71
2021/04/19 03:43:47;;;;;;;30.15;20.57;;;12.00;99.90;;;;;;1846806;76;21590;-71
2021/04/19 03:46:17;;;;;;;27.05;18.85;;;12.00;99.90;;;;;;1839432;77;21113;-70
2021/04/19 03:48:46;;;;;;;28.87;19.35;;;12.10;99.90;;;;;;1835551;77;21066;-71
2021/04/19 03:51:18;;;;;;;28.10;19.57;;;12.10;99.90;;;;;;1839425;76;21246;-71
2021/04/19 03:53:46;;;;;;;;;;;12.10;99.90;;;;;;1843071;77;21154;-71
2021/04/19 03:56:14;;;;;;;31.12;20.00;;;12.10;99.90;;;;;;1839693;75;20120;-70
2021/04/19 03:58:44;;;;;;;33.90;20.50;;;12.10;99.90;;;;;;1833840;77;21122;-74
2021/04/19 04:01:13;;;;;;;30.00;20.68;;;12.10;99.90;;;;;;1834137;77;21286;-74
2021/04/19 04:03:44;;;;;;;29.07;20.05;;;12.10;99.90;;;;;;1836409;77;21808;-72
2021/04/19 04:06:12;;;;;;;29.15;19.30;;;12.20;99.90;;;;;;1838255;77;21515;-74
2021/04/19 04:08:42;;;;;;;29.98;20.02;;;12.10;99.90;;;;;;1831896;77;21186;-73
2021/04/19 04:11:11;;;;;;;32.25;21.45;;;12.00;99.90;;;;;;1834166;77;21093;-72
2021/04/19 04:13:38;;;;;;;29.75;21.20;;;11.90;99.90;;;;;;1835716;76;21131;-73
2021/04/19 04:16:06;;;;;;;28.20;20.00;;;12.00;99.90;;;;;;1842837;77;21073;-73
2021/04/19 04:18:33;;;;;;;30.27;20.43;;;12.00;99.90;;;;;;1844289;77;21171;-73
2021/04/19 04:21:02;;;;;;;28.55;20.15;;;12.00;99.90;;;;;;1839594;77;21390;-74
2021/04/19 04:23:29;;;;;;;28.92;19.52;;;12.00;99.90;;;;;;1841059;77;21691;-74
2021/04/19 04:25:57;;;;;;;27.70;19.65;;;12.00;99.90;;;;;;1836729;77;21167;-74
2021/04/19 04:28:25;;;;;;;29.70;18.95;;;12.00;99.90;;;;;;1837379;76;21640;-73
2021/04/19 04:30:52;;;;;;;22.85;18.55;;;11.90;99.90;;;;;;1839160;77;21117;-73
2021/04/19 04:33:20;;;;;;;27.07;19.62;;;11.90;99.90;;;;;;1836851;77;21189;-73
2021/04/19 04:35:47;;;;;;;27.15;18.90;;;12.00;99.90;;;;;;1837228;77;21672;-73
2021/04/19 04:38:15;;;;;;;25.25;18.20;;;11.90;99.90;;;;;;1833761;76;21561;-72
2021/04/19 04:40:43;;;;;;;24.77;18.35;;;11.80;99.90;;;;;;1836901;77;21593;-73
2021/04/19 04:43:16;;;;;;;26.70;18.67;;;11.80;99.90;;;;;;1835286;76;21206;-73
2021/04/19 04:45:43;;;;;;;26.68;19.02;;;11.90;99.90;;;;;;1838144;77;21574;-74
2021/04/19 04:48:20;;;;;;;27.93;17.82;;;12.00;99.90;;;;;;1833957;77;21343;-73
2021/04/19 04:50:53;;;;;;;26.48;18.55;;;12.10;99.90;;;;;;1829490;77;21206;-70
2021/04/19 04:53:27;;;;;;;24.57;17.67;;;12.20;99.90;;;;;;1837631;77;21125;-71
2021/04/19 04:55:56;;;;;;;27.93;17.70;;;12.20;99.90;;;;;;1840616;75;21207;-71
2021/04/19 04:58:24;;;;;;;27.80;17.60;;;12.20;99.90;;;;;;1842034;77;21597;-71
2021/04/19 05:00:53;;;;;;;23.22;17.00;;;12.20;99.90;;;;;;1840521;77;21117;-71
2021/04/19 05:03:21;;;;;;;21.30;17.07;;;12.20;99.90;;;;;;1833243;77;21088;-72
2021/04/19 05:05:49;;;;;;;26.50;18.02;;;12.10;99.90;;;;;;1838315;77;21068;-71
2021/04/19 05:08:17;;;;;;;24.27;16.75;;;12.20;99.90;;;;;;1844268;76;21739;-71
2021/04/19 05:10:45;;;;;;;20.90;16.42;;;12.20;99.90;;;;;;1838124;77;21181;-71
2021/04/19 05:13:14;;;;;;;23.18;15.90;;;12.10;99.90;;;;;;1833364;77;21177;-71
2021/04/19 05:15:46;;;;;;;22.25;16.40;;;12.20;99.90;;;;;;1836473;76;21090;-71
2021/04/19 05:18:15;;;;;;;26.97;16.25;;;12.20;99.90;;;;;;1839375;77;21101;-69
2021/04/19 05:20:44;;;;;;;24.82;16.60;;;12.10;99.90;;;;;;1842409;76;21092;-70
2021/04/19 05:23:20;;;;;;;20.88;16.40;;;12.10;99.90;;;;;;1846374;75;21173;-70
2021/04/19 05:25:48;;;;;;;25.25;17.12;;;12.10;99.90;;;;;;1837358;77;21160;-70
2021/04/19 05:28:18;;;;;;;24.37;16.02;;;12.00;99.90;;;;;;1838983;77;21127;-70
2021/04/19 05:30:46;;;;;;;21.35;15.98;;;12.00;99.90;;;;;;1846138;77;21159;-68
2021/04/19 05:33:15;;;;;;;24.40;17.45;;;12.00;99.90;;;;;;1839241;76;21308;-69
2021/04/19 05:35:42;;;;;;;24.47;16.15;;;11.90;99.90;;;;;;1835072;75;21115;-69
2021/04/19 05:38:10;;;;;;;27.52;17.32;;;11.90;99.90;;;;;;1836702;77;21152;-70
2021/04/19 05:40:38;;;;;;;21.95;17.23;;;12.00;99.90;;;;;;1836232;77;21155;-69
2021/04/19 05:43:07;;;;;;;26.97;17.00;;;11.90;99.90;;;;;;1846050;77;21049;-69
2021/04/19 05:45:37;;;;;;;23.45;16.73;;;11.90;99.90;;;;;;1839706;76;21168;-68
2021/04/19 05:48:08;;;;;;;23.05;17.25;;;11.90;99.90;;;;;;1837042;77;21147;-69
2021/04/19 05:50:36;;;;;;;25.65;17.55;;;11.90;99.90;;;;;;1845058;77;21695;-69
2021/04/19 05:53:04;;;;;;;21.42;17.07;;;11.90;99.90;;;;;;1838631;76;21108;-68
2021/04/19 05:55:34;;;;;;;24.00;17.82;;;12.00;99.90;;;;;;1840139;76;21808;-69
2021/04/19 05:58:30;;;;;;;24.52;17.65;;;12.00;99.90;;;;;;1836789;77;21056;-69
2021/04/19 06:01:09;;;;;;;28.80;17.32;;;12.00;99.90;;;;;;1829634;77;21496;-68
2021/04/19 06:03:40;;;;;;;22.73;16.23;;;12.00;99.90;;;;;;1833735;76;21072;-69
2021/04/19 06:06:16;;;;;;;23.18;17.27;;;12.00;99.90;;;;;;1836644;77;21018;-69
2021/04/19 06:08:50;;;;;;;26.07;17.37;;;12.00;99.90;;;;;;1845499;77;21052;-70
2021/04/19 06:11:20;;;;;;;24.47;17.23;;;11.90;99.90;;;;;;1839666;77;21116;-69
2021/04/19 06:13:49;;;;;;;23.67;16.50;;;12.00;99.90;;;;;;1842394;77;21222;-68
2021/04/19 06:16:19;;;;;;;25.68;17.60;;;12.00;99.90;;;;;;1840737;77;21179;-70
2021/04/19 06:18:47;;;;;;;27.45;17.50;;;12.00;99.90;;;;;;1839345;77;21010;-69
2021/04/19 06:21:14;;;;;;;23.50;16.35;;;12.00;99.90;;;;;;1843388;76;21036;-69
2021/04/19 06:23:42;;;;;;;33.15;21.75;;;12.10;99.90;;;;;;1843640;77;21658;-69
2021/04/19 06:26:10;;;;;;;26.75;17.37;;;12.00;99.90;;;;;;1843649;77;21563;-67
2021/04/19 06:28:38;;;;;;;26.17;17.75;;;12.10;99.90;;;;;;1841091;77;21159;-67
2021/04/19 06:31:08;;;;;;;23.52;16.85;;;12.00;99.90;;;;;;1838243;77;21512;-68
2021/04/19 06:33:36;;;;;;;25.08;16.02;;;12.10;99.90;;;;;;1839419;77;21476;-70
2021/04/19 06:36:03;;;;;;;24.30;17.67;;;12.10;99.90;;;;;;1840984;77;21162;-70
2021/04/19 06:38:31;;;;;;;22.25;16.65;;;12.10;99.90;;;;;;1834793;77;21086;-68
2021/04/19 06:40:59;;;;;;;20.57;16.23;;;12.00;99.90;;;;;;1837026;77;21107;-68
2021/04/19 06:43:29;;;;;;;23.57;16.73;;;12.00;99.90;;;;;;1840116;77;21172;-68
2021/04/19 06:45:57;;;;;;;21.52;16.27;;;12.00;99.90;;;;;;1834158;77;21061;-69
2021/04/19 06:48:25;;;;;;;22.15;16.25;;;11.90;99.90;;;;;;1838091;77;21171;-69
2021/04/19 06:50:53;;;;;;;22.70;15.20;;;12.00;99.90;;;;;;1837471;75;21128;-67
2021/04/19 06:53:20;;;;;;;23.20;15.95;;;12.00;99.90;;;;;;1844836;76;21105;-67
2021/04/19 06:55:48;;;;;;;23.67;16.48;;;11.80;99.90;;;;;;1837729;77;21226;-69
2021/04/19 06:58:17;;;;;;;22.70;15.93;;;11.90;99.90;;;;;;1843028;77;21118;-70
2021/04/19 07:00:48;;;;;;;24.10;16.32;;;11.90;99.90;;;;;;1839288;77;22109;-69
2021/04/19 07:03:18;;;;;;;20.92;15.75;;;12.00;99.90;;;;;;1842349;77;21096;-68
2021/04/19 07:05:47;;;;;;;30.57;16.90;;;12.00;99.90;;;;;;1839673;75;21487;-69
2021/04/19 07:08:33;;;;;;;26.23;17.80;;;12.00;99.90;;;;;;1837017;77;21107;-69
2021/04/19 07:11:06;;;;;;;21.15;16.57;;;12.10;99.90;;;;;;1840232;77;21168;-68
2021/04/19 07:13:36;;;;;;;23.00;16.40;;;12.20;99.90;;;;;;1841070;76;21980;-68
2021/04/19 07:16:04;;;;;;;20.60;15.20;;;12.20;99.90;;;;;;1839815;77;21085;-68
2021/04/19 07:18:33;;;;;;;20.40;15.90;;;12.10;99.90;;;;;;1841355;76;21569;-68
2021/04/19 07:21:01;;;;;;;19.05;14.90;;;12.20;99.90;;;;;;1838379;76;21596;-69
2021/04/19 07:23:29;;;;;;;19.10;15.38;;;12.20;99.90;;;;;;1846463;77;21166;-69
2021/04/19 07:25:57;;;;;;;19.10;15.00;;;12.30;99.90;;;;;;1840650;77;21139;-69
2021/04/19 07:28:24;;;;;;;15.70;13.93;;;12.20;99.90;;;;;;1839949;77;21104;-69
2021/04/19 07:31:01;;;;;;;18.45;14.75;;;12.20;99.90;;;;;;1842778;77;21491;-70
2021/04/19 07:33:33;;;;;;;22.13;15.90;;;12.30;99.90;;;;;;1843318;77;21045;-69
2021/04/19 07:36:26;;;;;;;19.32;14.68;;;12.10;99.90;;;;;;1843674;77;21147;-69
2021/04/19 07:38:56;;;;;;;18.57;14.75;;;12.20;99.90;;;;;;1843847;75;21222;-68
2021/04/19 07:41:44;;;;;;;21.20;16.12;;;12.20;99.90;;;;;;1841444;77;21081;-68
2021/04/19 07:44:12;;;;;;;17.57;14.23;;;12.20;99.90;;;;;;1842093;77;21160;-69
2021/04/19 07:46:39;;;;;;;19.02;14.60;;;12.20;99.90;;;;;;1834100;77;22284;-68
2021/04/19 07:49:10;;;;;;;20.70;15.95;;;12.20;99.90;;;;;;1839778;77;21096;-68
2021/04/19 07:51:38;;;;;;;25.02;17.85;;;12.30;99.90;;;;;;1841297;77;22203;-68
2021/04/19 07:54:15;;;;;;;26.77;17.02;;;12.30;99.90;;;;;;1841913;77;21206;-67
2021/04/19 07:56:54;;;;;;;24.45;17.65;;;12.30;99.90;;;;;;1837783;77;21204;-69
2021/04/19 07:59:32;;;;;;;22.67;17.50;;;12.40;99.90;;;;;;1842636;77;21174;-68
2021/04/19 08:02:18;;;;;;;19.32;16.12;;;12.40;99.90;;;;;;1839398;77;21124;-68
2021/04/19 08:04:53;;;;;;;20.27;15.15;;;12.50;99.90;;;;;;1842180;77;21637;-68
2021/04/19 08:07:25;;;;;;;15.58;12.65;;;12.60;99.90;;;;;;1840995;77;21037;-69
2021/04/19 08:09:59;;;;;;;15.98;12.33;;;12.70;99.90;;;;;;1831005;77;21038;-68
2021/04/19 08:12:34;;;;;;;15.70;12.53;;;12.60;99.90;;;;;;1843970;77;21050;-68
2021/04/19 08:15:03;;;;;;;15.83;13.08;;;12.60;99.90;;;;;;1837431;77;21166;-68
2021/04/19 08:17:32;;;;;;;17.87;13.10;;;12.60;99.90;;;;;;1838098;77;21034;-69
2021/04/19 08:20:01;;;;;;;22.10;14.93;;;12.70;99.90;;;;;;1842790;77;21534;-68
2021/04/19 08:22:30;;;;;;;19.75;15.30;;;12.70;99.90;;;;;;1844806;77;21488;-69
2021/04/19 08:25:17;;;;;;;21.15;15.55;;;12.80;99.90;;;;;;1842976;75;21086;-68
2021/04/19 08:28:03;;;;;;;18.45;14.43;;;12.80;99.90;;;;;;1841397;77;21061;-69
2021/04/19 08:30:31;;;;;;;19.27;14.70;;;12.80;99.90;;;;;;1846532;76;21029;-70
2021/04/19 08:32:59;;;;;;;19.50;14.23;;;12.90;99.90;;;;;;1844227;77;21092;-68
2021/04/19 08:35:28;;;;;;;20.48;14.25;;;13.00;99.90;;;;;;1844305;77;21558;-68
2021/04/19 08:37:59;;;;;;;16.77;13.55;;;13.00;99.90;;;;;;1839754;77;21156;-68
2021/04/19 08:40:29;;;;;;;17.80;13.60;;;13.10;99.90;;;;;;1838269;77;21089;-68
2021/04/19 08:42:57;;;;;;;18.80;13.43;;;13.10;99.90;;;;;;1846056;77;21045;-68
2021/04/19 08:45:28;;;;;;;15.72;13.35;;;13.10;99.90;;;;;;1845283;77;21030;-69
2021/04/19 08:47:56;;;;;;;16.20;12.73;;;13.10;99.90;;;;;;1840991;77;21041;-68
2021/04/19 08:50:26;;;;;;;15.58;12.05;;;13.10;99.90;;;;;;1838705;77;21146;-69
2021/04/19 08:52:56;;;;;;;16.20;12.63;;;13.10;99.90;;;;;;1836343;77;21686;-68
2021/04/19 08:55:25;;;;;;;15.90;12.90;;;13.20;99.90;;;;;;1843700;77;21105;-68
2021/04/19 08:57:59;;;;;;;17.32;12.98;;;13.20;99.90;;;;;;1844021;77;21050;-68
2021/04/19 09:00:27;;;;;;;16.35;12.20;;;13.20;99.90;;;;;;1841622;77;21113;-68
2021/04/19 09:02:56;;;;;;;19.23;13.18;;;13.20;99.90;;;;;;1841232;77;21130;-68
2021/04/19 09:05:24;;;;;;;20.88;13.20;;;13.20;99.90;;;;;;1840395;77;21559;-68
2021/04/19 09:08:04;;;;;;;16.00;13.28;;;13.30;99.90;;;;;;1842759;77;21228;-69
2021/04/19 09:11:10;;;;;;;17.20;13.32;;;13.30;99.90;;;;;;1843685;77;21120;-68
2021/04/19 09:13:39;;;;;;;19.65;14.53;;;13.30;99.90;;;;;;1843160;77;21206;-67
2021/04/19 09:16:21;;;;;;;17.70;14.15;;;13.50;99.90;;;;;;1845769;77;21120;-68
2021/04/19 09:18:59;;;;;;;17.77;13.45;;;13.50;99.90;;;;;;1841024;77;21096;-68
2021/04/19 09:21:50;;;;;;;18.65;15.32;;;13.40;99.90;;;;;;1839775;77;21085;-68
2021/04/19 09:24:23;;;;;;;17.48;13.48;;;13.50;99.90;;;;;;1842297;77;21168;-67
2021/04/19 09:26:54;;;;;;;20.23;14.45;;;13.60;99.90;;;;;;1839794;77;21100;-70
2021/04/19 09:29:31;;;;;;;19.35;13.78;;;13.60;99.90;;;;;;1837607;77;21112;-69
2021/04/19 09:32:02;;;;;;;19.60;14.53;;;13.80;99.90;;;;;;1835849;77;21077;-69
2021/04/19 09:34:48;;;;;;;17.48;14.30;;;13.70;99.90;;;;;;1843306;76;21116;-69
2021/04/19 09:37:18;;;;;;;15.48;12.40;;;13.80;99.90;;;;;;1843274;77;21917;-69
2021/04/19 09:39:51;;;;;;;18.37;13.80;;;13.80;99.90;;;;;;1842815;77;21569;-69
2021/04/19 09:42:21;;;;;;;17.37;13.60;;;13.90;99.90;;;;;;1846974;77;21132;-69
2021/04/19 09:44:51;;;;;;;16.45;13.18;;;14.00;99.90;;;;;;1837764;77;21195;-67
2021/04/19 09:47:25;;;;;;;15.50;12.68;;;14.10;99.90;;;;;;1839086;77;21588;-67
2021/04/19 09:49:53;;;;;;;19.12;12.90;;;14.20;99.90;;;;;;1807495;77;21100;-70
2021/04/19 09:52:21;;;;;;;17.50;12.82;;;14.40;99.90;;;;;;1842414;77;21101;-68
2021/04/19 09:54:48;;;;;;;17.57;13.18;;;14.60;99.90;;;;;;1842129;77;21739;-68
2021/04/19 09:57:16;;;;;;;17.52;13.25;;;14.60;99.90;;;;;;1841738;77;21061;-68
2021/04/19 09:59:44;;;;;;;15.80;11.70;;;14.70;99.90;;;;;;1841120;77;21182;-68
2021/04/19 10:02:13;;;;;;;16.37;12.35;;;14.70;99.90;;;;;;1837491;77;21140;-68
2021/04/19 10:04:44;;;;;;;15.88;12.75;;;14.70;99.90;;;;;;1844478;76;21128;-67
2021/04/19 10:07:12;;;;;;;16.10;12.80;;;14.80;99.90;;;;;;1839681;77;21135;-68
2021/04/19 10:09:44;;;;;;;20.88;16.57;;;14.80;99.90;;;;;;1835553;77;21090;-68
2021/04/19 10:12:15;;;;;;;17.37;13.00;;;14.80;99.90;;;;;;1846057;77;21605;-66
2021/04/19 10:14:42;;;;;;;16.65;13.10;;;14.80;99.90;;;;;;1840731;77;21159;-67
2021/04/19 10:17:27;;;;;;;16.17;13.05;;;14.80;99.90;;;;;;1833764;77;21073;-67
2021/04/19 10:19:50;;;;;;;18.55;13.70;;;14.80;99.90;;;;;;1835307;77;21190;-67
2021/04/19 10:22:19;;;;;;;17.30;12.90;;;14.80;99.90;;;;;;1841289;77;21207;-67
2021/04/19 10:24:57;;;;;;;15.58;12.55;;;14.90;99.90;;;;;;1838515;77;21501;-67
2021/04/19 10:27:29;;;;;;;17.67;13.88;;;15.00;99.90;;;;;;1841425;77;21225;-67
2021/04/19 10:30:11;;;;;;;15.85;13.18;;;15.10;99.90;;;;;;1839861;77;21372;-66
2021/04/19 10:32:39;;;;;;;17.00;13.20;;;15.10;99.90;;;;;;1840951;77;21403;-66
2021/04/19 10:35:35;;;;;;;17.52;13.88;;;15.20;99.90;;;;;;1841129;77;21238;-67
2021/04/19 10:38:04;;;;;;;19.37;14.05;;;15.20;99.90;;;;;;1846009;77;21648;-67
2021/04/19 10:40:32;;;;;;;16.62;12.95;;;15.40;99.90;;;;;;1842369;75;21112;-67
2021/04/19 10:43:11;;;;;;;17.95;13.48;;;15.40;99.90;;;;;;1841081;77;21128;-67
2021/04/19 10:45:43;;;;;;;17.87;13.25;;;15.50;99.90;;;;;;1836959;77;21171;-67
2021/04/19 10:48:28;;;;;;;18.12;14.60;;;15.50;99.90;;;;;;1838567;77;21057;-67
2021/04/19 10:50:59;;;;;;;17.60;13.50;;;15.50;99.90;;;;;;1841487;77;21100;-68
2021/04/19 10:53:34;;;;;;;18.95;13.05;;;15.50;99.90;;;;;;1839793;77;21018;-68
2021/04/19 10:56:02;;;;;;;18.02;13.98;;;15.50;99.90;;;;;;1839816;77;21057;-67
2021/04/19 10:58:35;;;;;;;17.05;13.35;;;15.60;99.90;;;;;;1838054;77;21119;-68
2021/04/19 11:01:04;;;;;;;14.18;12.63;;;15.70;99.90;;;;;;1838702;77;21006;-67
2021/04/19 11:03:39;;;;;;;18.52;13.50;;;15.50;99.90;;;;;;1843101;77;21265;-67
2021/04/19 11:06:09;;;;;;;19.87;13.88;;;15.70;99.90;;;;;;1840038;77;21036;-67
2021/04/19 11:08:51;;;;;;;17.35;13.35;;;15.80;99.90;;;;;;1834455;77;21050;-68
2021/04/19 11:11:39;;;;;;;18.17;13.38;;;16.00;99.90;;;;;;1840438;77;21072;-69
2021/04/19 11:14:15;;;;;;;17.73;13.72;;;16.10;99.90;;;;;;1840991;77;21081;-68
2021/04/19 11:16:51;;;;;;;16.25;13.25;;;16.40;99.90;;;;;;1841023;77;21146;-68
2021/04/19 11:19:36;;;;;;;17.77;13.25;;;16.30;99.90;;;;;;1829076;77;21089;-68
2021/04/19 11:22:23;;;;;;;16.77;12.78;;;16.30;99.90;;;;;;1841540;77;21104;-68
2021/04/19 11:24:51;;;;;;;15.55;13.10;;;16.50;99.90;;;;;;1841208;76;21081;-69
2021/04/19 11:27:27;;;;;;;15.58;12.82;;;16.70;99.90;;;;;;1838039;77;21669;-69
2021/04/19 11:29:55;;;;;;;15.88;13.03;;;16.90;99.90;;;;;;1840811;77;21061;-68
2021/04/19 11:32:31;;;;;;;17.55;13.05;;;16.90;99.90;;;;;;1841770;77;21561;-69
2021/04/19 11:35:00;;;;;;;16.95;12.28;;;16.90;99.90;;;;;;1832643;77;21798;-68
2021/04/19 11:37:36;;;;;;;19.42;13.45;;;16.90;99.90;;;;;;1836965;77;21132;-68
2021/04/19 11:40:06;;;;;;;18.50;12.95;;;17.00;99.90;;;;;;1834693;77;21447;-68
2021/04/19 11:42:36;;;;;;;15.65;11.65;;;17.10;99.90;;;;;;1840801;75;21164;-69
2021/04/19 11:45:06;;;;;;;15.80;13.32;;;17.10;99.90;;;;;;1842730;77;21175;-69
2021/04/19 11:47:34;;;;;;;16.05;12.47;;;17.30;99.90;;;;;;1844611;77;21116;-69
2021/04/19 11:50:01;;;;;;;15.08;12.03;;;17.30;99.90;;;;;;1840853;77;21113;-68
2021/04/19 11:52:29;;;;;;;15.05;12.33;;;17.50;99.90;;;;;;1837027;77;21081;-69
2021/04/19 11:54:56;;;;;;;14.95;12.23;;;17.70;99.90;;;;;;1840096;76;21103;-68
2021/04/19 11:57:24;;;;;;;13.65;11.35;;;17.90;99.70;;;;;;1837403;77;21077;-68
2021/04/19 11:59:51;;;;;;;14.28;11.45;;;18.00;99.70;;;;;;1839320;77;21026;-68
2021/04/19 12:02:19;;;;;;;14.03;11.10;;;18.30;97.40;;;;;;1837574;76;21184;-69
2021/04/19 12:04:46;;;;;;;14.38;11.00;;;18.70;98.20;;;;;;1837891;76;21165;-69
2021/04/19 12:07:14;;;;;;;13.72;10.80;;;19.10;98.50;;;;;;1840849;77;21108;-69
2021/04/19 12:09:41;;;;;;;16.15;12.85;;;19.20;97.60;;;;;;1836482;77;21108;-69
2021/04/19 12:12:09;;;;;;;18.30;11.93;;;19.20;96.20;;;;;;1835972;77;21148;-69
2021/04/19 12:14:36;;;;;;;15.32;12.35;;;18.80;96.30;;;;;;1838060;77;21129;-68
2021/04/19 12:17:04;;;;;;;16.90;12.58;;;18.80;97.10;;;;;;1838013;77;21125;-69
2021/04/19 12:19:31;;;;;;;15.00;11.97;;;18.70;96.90;;;;;;1837985;77;21528;-69
2021/04/19 12:21:59;;;;;;;14.40;11.50;;;18.90;98.20;;;;;;1840516;77;21051;-69
2021/04/19 12:24:26;;;;;;;14.85;11.15;;;19.00;97.50;;;;;;1842764;77;21132;-69
2021/04/19 12:26:54;;;;;;;12.53;10.70;;;19.10;97.50;;;;;;1835360;77;21093;-69
2021/04/19 12:29:21;;;;;;;13.15;10.05;;;19.10;96.00;;;;;;1839462;76;21791;-69
2021/04/19 12:31:49;;;;;;;13.72;11.08;;;19.00;95.70;;;;;;1836877;77;21210;-69
2021/04/19 12:34:16;;;;;;;14.80;10.45;;;18.90;95.00;;;;;;1843023;77;21140;-69
2021/04/19 12:36:44;;;;;;;13.78;11.05;;;18.90;94.70;;;;;;1839760;75;21629;-69
2021/04/19 12:39:12;;;;;;;14.53;10.55;;;18.80;94.80;;;;;;1835636;77;21510;-69
2021/04/19 12:41:39;;;;;;;13.85;10.72;;;18.80;95.60;;;;;;1834384;77;21545;-69
2021/04/19 12:44:07;;;;;;;14.98;11.18;;;18.80;95.60;;;;;;1843510;75;21830;-69
2021/04/19 12:46:34;;;;;;;16.05;11.00;;;18.70;94.60;;;;;;1842910;77;21104;-69
2021/04/19 12:49:02;;;;;;;15.78;11.12;;;18.80;95.10;;;;;;1834740;77;21159;-69